createdAt,value
2023-02-11T00:01:36.170Z,100269.91
2023-02-11T00:04:06.554Z,100276.53
2023-02-11T00:06:36.461Z,100273.97
2023-02-11T00:09:06.006Z,100268.81
2023-02-11T00:11:35.126Z,100266.22
2023-02-11T00:14:07.888Z,100266.97
2023-02-11T00:16:36.524Z,100271.16
2023-02-11T00:19:06.454Z,100271.16
2023-02-11T00:21:35.957Z,100265.94
2023-02-11T00:24:04.805Z,100265.09
2023-02-11T00:26:36.298Z,100266.63
2023-02-11T00:29:06.526Z,100266.50
2023-02-11T00:31:35.882Z,100268.88
2023-02-11T00:34:06.925Z,100256.06
2023-02-11T00:36:35.303Z,100252.56
2023-02-11T00:39:03.863Z,100254.00
2023-02-11T00:41:32.688Z,100248.72
2023-02-11T00:44:01.093Z,100246.00
2023-02-11T00:46:31.087Z,100246.75
2023-02-11T00:48:59.577Z,100254.28
2023-02-11T00:51:29.485Z,100255.84
2023-02-11T00:53:58.020Z,100249.94
2023-02-11T00:56:26.663Z,100264.28
2023-02-11T00:58:55.096Z,100257.56
2023-02-11T01:01:24.001Z,100252.41
2023-02-11T01:03:53.967Z,100247.34
2023-02-11T01:06:25.037Z,100244.16
2023-02-11T01:08:53.440Z,100241.78
2023-02-11T01:11:22.809Z,100235.03
2023-02-11T01:13:52.224Z,100227.22
2023-02-11T01:16:22.051Z,100225.53
2023-02-11T01:18:50.496Z,100223.47
2023-02-11T01:21:20.766Z,100224.94
2023-02-11T01:23:49.305Z,100219.84
2023-02-11T01:26:17.677Z,100221.38
2023-02-11T01:28:46.327Z,100208.59
2023-02-11T01:31:14.847Z,100210.16
2023-02-11T01:33:43.491Z,100200.66
2023-02-11T01:36:13.763Z,100207.41
2023-02-11T01:38:44.628Z,100207.22
2023-02-11T01:41:15.675Z,100215.00
2023-02-11T01:43:47.537Z,100212.38
2023-02-11T01:46:29.891Z,100208.88
2023-02-11T01:49:04.319Z,100203.09
2023-02-11T01:51:38.194Z,100209.75
2023-02-11T01:54:28.285Z,100215.75
2023-02-11T01:57:17.598Z,100213.16
2023-02-11T01:59:56.487Z,100216.50
2023-02-11T02:02:29.417Z,100209.75
2023-02-11T02:05:04.690Z,100208.16
2023-02-11T02:07:39.970Z,100195.50
2023-02-11T02:10:16.627Z,100191.41
2023-02-11T02:12:44.922Z,100188.88
2023-02-11T02:15:29.032Z,100190.53
2023-02-11T02:18:17.020Z,100192.13
2023-02-11T02:21:47.313Z,100185.41
2023-02-11T02:24:57.941Z,100193.91
2023-02-11T02:27:39.316Z,100173.66
2023-02-11T02:30:41.219Z,100183.75
2023-02-11T02:33:30.440Z,100181.28
2023-02-11T02:36:10.839Z,100175.63
2023-02-11T02:38:46.479Z,100178.22
2023-02-11T02:41:18.438Z,100174.94
2023-02-11T02:43:50.406Z,100170.59
2023-02-11T02:46:22.079Z,100164.00
2023-02-11T02:48:54.343Z,100157.38
2023-02-11T02:51:51.298Z,100141.16
2023-02-11T02:55:08.873Z,100144.13
2023-02-11T02:57:51.973Z,100145.56
2023-02-11T03:00:30.593Z,100152.22
2023-02-11T03:03:19.031Z,100154.47
2023-02-11T03:05:58.433Z,100148.53
2023-02-11T03:08:34.384Z,100145.06
2023-02-11T03:11:04.493Z,100135.69
2023-02-11T03:13:36.109Z,100137.28
2023-02-11T03:16:11.456Z,100138.97
2023-02-11T03:18:45.314Z,100133.78
2023-02-11T03:21:18.124Z,100136.28
2023-02-11T03:23:52.588Z,100126.97
2023-02-11T03:26:27.445Z,100134.66
2023-02-11T03:29:04.297Z,100123.66
2023-02-11T03:31:38.540Z,100121.03
2023-02-11T03:34:12.646Z,100126.16
2023-02-11T03:36:47.525Z,100121.88
2023-02-11T03:39:22.312Z,100132.88
2023-02-11T03:41:53.011Z,100132.88
2023-02-11T03:44:24.266Z,100138.63
2023-02-11T03:46:55.201Z,100139.53
2023-02-11T03:49:26.234Z,100129.47
2023-02-11T03:51:57.311Z,100124.31
2023-02-11T03:54:30.839Z,100126.09
2023-02-11T03:57:02.481Z,100134.56
2023-02-11T03:59:30.930Z,100142.13
2023-02-11T04:01:59.585Z,100132.00
2023-02-11T04:04:27.971Z,100133.72
2023-02-11T04:06:57.751Z,100139.72
2023-02-11T04:09:26.009Z,100149.00
2023-02-11T04:11:54.239Z,100149.88
2023-02-11T04:14:22.431Z,100152.47
2023-02-11T04:16:50.695Z,100145.84
2023-02-11T04:19:18.955Z,100156.88
2023-02-11T04:21:47.954Z,100158.63
2023-02-11T04:24:17.566Z,100150.28
2023-02-11T04:26:45.831Z,100147.94
2023-02-11T04:29:14.174Z,100152.25
2023-02-11T04:31:42.459Z,100147.34
2023-02-11T04:34:10.816Z,100151.69
2023-02-11T04:36:39.279Z,100160.16
2023-02-11T04:39:08.152Z,100152.63
2023-02-11T04:41:37.881Z,100152.66
2023-02-11T04:44:06.527Z,100155.19
2023-02-11T04:46:34.781Z,100150.13
2023-02-11T04:49:03.430Z,100144.97
2023-02-11T04:51:32.574Z,100128.03
2023-02-11T04:54:00.790Z,100140.63
2023-02-11T04:56:29.204Z,100136.34
2023-02-11T04:58:59.026Z,100143.81
2023-02-11T05:01:27.849Z,100137.16
2023-02-11T05:03:57.152Z,100143.19
2023-02-11T05:06:25.640Z,100136.41
2023-02-11T05:08:53.964Z,100133.13
2023-02-11T05:11:25.869Z,100131.47
2023-02-11T05:13:54.353Z,100118.03
2023-02-11T05:16:23.995Z,100102.72
2023-02-11T05:18:53.636Z,100101.81
2023-02-11T05:21:22.347Z,100080.69
2023-02-11T05:23:50.695Z,100078.91
2023-02-11T05:26:19.609Z,100068.75
2023-02-11T05:28:48.027Z,100080.53
2023-02-11T05:31:16.860Z,100090.72
2023-02-11T05:33:46.654Z,100087.38
2023-02-11T05:36:15.903Z,100079.78
2023-02-11T05:38:44.372Z,100075.63
2023-02-11T05:41:14.673Z,100089.13
2023-02-11T05:43:43.307Z,100090.91
2023-02-11T05:46:11.706Z,100092.63
2023-02-11T05:48:39.969Z,100085.84
2023-02-11T05:51:09.634Z,100081.75
2023-02-11T05:53:38.019Z,100084.25
2023-02-11T05:56:07.576Z,100085.28
2023-02-11T05:58:35.772Z,100077.63
2023-02-11T06:01:04.184Z,100094.56
2023-02-11T06:03:32.456Z,100091.19
2023-02-11T06:06:00.709Z,100093.81
2023-02-11T06:08:30.433Z,100106.53
2023-02-11T06:10:58.803Z,100107.41
2023-02-11T06:13:27.043Z,100104.91
2023-02-11T06:15:59.498Z,100111.69
2023-02-11T06:18:27.943Z,100120.19
2023-02-11T06:20:56.432Z,100105.91
2023-02-11T06:23:25.021Z,100115.25
2023-02-11T06:25:54.602Z,100108.63
2023-02-11T06:28:23.030Z,100104.34
2023-02-11T06:30:51.368Z,100095.97
2023-02-11T06:33:19.927Z,100109.50
2023-02-11T06:35:48.412Z,100101.91
2023-02-11T06:38:16.842Z,100101.03
2023-02-11T06:40:49.418Z,100095.13
2023-02-11T06:43:19.263Z,100100.22
2023-02-11T06:45:54.892Z,100108.69
2023-02-11T06:48:24.537Z,100114.63
2023-02-11T06:50:52.916Z,100112.97
2023-02-11T06:53:21.312Z,100113.75
2023-02-11T06:55:50.286Z,100118.81
2023-02-11T06:58:20.205Z,100120.56
2023-02-11T07:00:48.540Z,100120.59
2023-02-11T07:03:16.948Z,100117.97
2023-02-11T07:05:45.245Z,100116.28
2023-02-11T07:08:14.228Z,100118.81
2023-02-11T07:10:42.740Z,100114.69
2023-02-11T07:13:11.088Z,100123.16
2023-02-11T07:15:41.872Z,100121.50
2023-02-11T07:18:11.097Z,100117.34
2023-02-11T07:20:40.479Z,100119.91
2023-02-11T07:23:08.960Z,100115.69
2023-02-11T07:25:37.764Z,100119.94
2023-02-11T07:28:06.524Z,100103.97
2023-02-11T07:30:34.787Z,100099.91
2023-02-11T07:33:04.574Z,100117.72
2023-02-11T07:35:33.065Z,100130.50
2023-02-11T07:38:01.358Z,100127.22
2023-02-11T07:40:31.536Z,100125.59
2023-02-11T07:43:01.714Z,100127.31
2023-02-11T07:45:30.066Z,100129.91
2023-02-11T07:47:58.430Z,100124.19
2023-02-11T07:50:28.156Z,100125.97
2023-02-11T07:52:56.470Z,100120.03
2023-02-11T07:55:25.022Z,100120.13
2023-02-11T07:57:53.471Z,100101.59
2023-02-11T08:00:22.084Z,100102.53
2023-02-11T08:02:50.417Z,100096.69
2023-02-11T08:05:19.016Z,100096.78
2023-02-11T08:07:49.352Z,100085.78
2023-02-11T08:10:17.887Z,100086.72
2023-02-11T08:12:46.150Z,100089.41
2023-02-11T08:15:14.995Z,100096.19
2023-02-11T08:17:43.344Z,100100.47
2023-02-11T08:20:12.623Z,100103.88
2023-02-11T08:22:40.949Z,100114.16
2023-02-11T08:25:10.765Z,100114.25
2023-02-11T08:27:39.049Z,100114.34
2023-02-11T08:30:08.919Z,100118.63
2023-02-11T08:32:37.397Z,100124.63
2023-02-11T08:35:07.764Z,100122.13
2023-02-11T08:37:36.150Z,100118.78
2023-02-11T08:40:04.852Z,100112.94
2023-02-11T08:42:34.613Z,100110.47
2023-02-11T08:45:03.398Z,100107.22
2023-02-11T08:47:31.842Z,100113.38
2023-02-11T08:50:00.102Z,100109.28
2023-02-11T08:52:28.618Z,100105.25
2023-02-11T08:54:57.248Z,100100.28
2023-02-11T08:57:25.566Z,100095.34
2023-02-11T08:59:55.253Z,100104.00
2023-02-11T09:02:23.543Z,100099.84
2023-02-11T09:04:51.915Z,100116.00
2023-02-11T09:07:20.357Z,100120.28
2023-02-11T09:09:48.734Z,100111.91
2023-02-11T09:12:16.992Z,100125.59
2023-02-11T09:14:45.227Z,100112.06
2023-02-11T09:17:14.850Z,100110.44
2023-02-11T09:19:43.116Z,100102.84
2023-02-11T09:22:11.612Z,100102.97
2023-02-11T09:24:39.941Z,100097.09
2023-02-11T09:27:08.665Z,100098.91
2023-02-11T09:29:37.080Z,100084.53
2023-02-11T09:32:09.687Z,100085.47
2023-02-11T09:34:39.887Z,100086.38
2023-02-11T09:37:08.580Z,100081.41
2023-02-11T09:39:37.273Z,100078.91
2023-02-11T09:42:40.347Z,100079.00
2023-02-11T09:45:17.516Z,100079.88
2023-02-11T09:47:54.163Z,100090.97
2023-02-11T09:50:31.355Z,100085.03
2023-02-11T09:53:04.392Z,100099.50
2023-02-11T09:55:37.765Z,100109.78
2023-02-11T09:58:13.628Z,100111.59
2023-02-11T10:00:48.592Z,100104.03
2023-02-11T10:03:42.449Z,100109.16
2023-02-11T10:06:29.948Z,100110.06
2023-02-11T10:09:13.222Z,100120.28
2023-02-11T10:11:52.972Z,100121.28
2023-02-11T10:14:43.532Z,100118.00
2023-02-11T10:17:23.242Z,100116.38
2023-02-11T10:20:09.432Z,100114.72
2023-02-11T10:22:45.390Z,100115.63
2023-02-11T10:25:22.976Z,100120.78
2023-02-11T10:27:53.092Z,100118.25
2023-02-11T10:30:29.433Z,100114.03
2023-02-11T10:33:04.335Z,100115.00
2023-02-11T10:35:33.921Z,100110.81
2023-02-11T10:38:03.649Z,100115.97
2023-02-11T10:40:33.695Z,100119.44
2023-02-11T10:43:05.537Z,100117.81
2023-02-11T10:45:38.019Z,100111.09
2023-02-11T10:48:38.016Z,100090.72
2023-02-11T10:51:19.206Z,100095.03
2023-02-11T10:53:51.498Z,100083.16
2023-02-11T10:56:27.657Z,100083.19
2023-02-11T10:59:00.659Z,100073.03
2023-02-11T11:01:46.882Z,100067.94
2023-02-11T11:04:38.729Z,100067.97
2023-02-11T11:07:29.608Z,100058.59
2023-02-11T11:10:03.557Z,100056.06
2023-02-11T11:12:42.207Z,100051.00
2023-02-11T11:15:22.003Z,100045.91
2023-02-11T11:17:51.023Z,100046.75
2023-02-11T11:20:29.086Z,100060.38
2023-02-11T11:23:16.194Z,100055.28
2023-02-11T11:26:01.421Z,100063.81
2023-02-11T11:28:31.327Z,100066.38
2023-02-11T11:31:01.178Z,100062.97
2023-02-11T11:33:32.528Z,100057.88
2023-02-11T11:36:05.785Z,100049.34
2023-02-11T11:38:36.467Z,100045.94
2023-02-11T11:41:25.272Z,100042.50
2023-02-11T11:43:59.322Z,100036.47
2023-02-11T11:46:32.163Z,100044.91
2023-02-11T11:49:13.439Z,100035.38
2023-02-11T11:51:45.125Z,100027.56
2023-02-11T11:54:15.094Z,100036.00
2023-02-11T11:56:53.421Z,100035.78
2023-02-11T11:59:22.959Z,100040.84
2023-02-11T12:02:21.652Z,100049.34
2023-02-11T12:05:04.916Z,100045.09
2023-02-11T12:07:54.622Z,100035.63
2023-02-11T12:10:58.510Z,100032.19
2023-02-11T12:13:44.944Z,100026.00
2023-02-11T12:16:26.918Z,100030.16
2023-02-11T12:19:31.578Z,100036.56
2023-02-11T12:22:26.535Z,100040.44
2023-02-11T12:25:18.030Z,100030.09
2023-02-11T12:27:57.240Z,100036.06
2023-02-11T12:30:47.282Z,100026.69
2023-02-11T12:33:32.404Z,100041.16
2023-02-11T12:36:08.896Z,100038.47
2023-02-11T12:39:03.853Z,100038.53
2023-02-11T12:42:14.309Z,100038.41
2023-02-11T12:44:59.002Z,100031.69
2023-02-11T12:47:38.849Z,100035.16
2023-02-11T12:50:19.990Z,100032.66
2023-02-11T12:53:11.177Z,100032.50
2023-02-11T12:55:45.266Z,100029.88
2023-02-11T12:58:20.124Z,100030.66
2023-02-11T13:00:52.077Z,100022.09
2023-02-11T13:03:27.245Z,100012.59
2023-02-11T13:05:58.426Z,100002.41
2023-02-11T13:08:32.523Z,99998.97
2023-02-11T13:11:07.891Z,99992.03
2023-02-11T13:13:47.828Z,99995.44
2023-02-11T13:16:34.448Z,99991.19
2023-02-11T13:19:18.438Z,99986.00
2023-02-11T13:22:03.705Z,99988.38
2023-02-11T13:24:44.275Z,99993.53
2023-02-11T13:27:26.263Z,99993.38
2023-02-11T13:30:27.451Z,99995.09
2023-02-11T13:33:21.409Z,99992.03
2023-02-11T13:36:17.238Z,99989.91
2023-02-11T13:38:54.548Z,99992.81
2023-02-11T13:41:32.462Z,99983.59
2023-02-11T13:44:22.051Z,99991.44
2023-02-11T13:47:02.761Z,99993.88
2023-02-11T13:49:36.407Z,99993.53
2023-02-11T13:52:17.948Z,99984.69
2023-02-11T13:54:51.933Z,99982.28
2023-02-11T13:57:31.693Z,99982.97
2023-02-11T14:00:02.168Z,99970.00
2023-02-11T14:02:53.057Z,99980.66
2023-02-11T14:05:48.864Z,99971.47
2023-02-11T14:08:42.992Z,99970.31
2023-02-11T14:11:49.192Z,99976.22
2023-02-11T14:14:25.078Z,99965.66
2023-02-11T14:17:34.452Z,99958.66
2023-02-11T14:20:06.419Z,99965.66
2023-02-11T14:22:46.985Z,99962.91
2023-02-11T14:25:23.872Z,99956.44
2023-02-11T14:27:57.914Z,99964.28
2023-02-11T14:30:45.999Z,99975.72
2023-02-11T14:34:05.049Z,99976.34
2023-02-11T14:37:02.631Z,99972.03
2023-02-11T14:39:52.815Z,99967.38
2023-02-11T14:42:26.965Z,99968.47
2023-02-11T14:44:58.069Z,99965.56
2023-02-11T14:47:35.438Z,99978.59
2023-02-11T14:50:03.913Z,99986.78
2023-02-11T14:52:35.318Z,99977.72
2023-02-11T14:55:17.985Z,99984.03
2023-02-11T14:57:49.526Z,99985.72
2023-02-11T15:00:21.716Z,100001.19
2023-02-11T15:02:50.299Z,99998.44
2023-02-11T15:05:22.814Z,100000.28
2023-02-11T15:07:54.397Z,100000.22
2023-02-11T15:10:32.784Z,99997.78
2023-02-11T15:13:04.104Z,100000.44
2023-02-11T15:15:35.809Z,99996.78
2023-02-11T15:18:05.774Z,99997.56
2023-02-11T15:20:35.821Z,100000.34
2023-02-11T15:23:09.234Z,100006.94
2023-02-11T15:25:45.710Z,100007.06
2023-02-11T15:28:26.920Z,100005.25
2023-02-11T15:31:01.369Z,100006.81
2023-02-11T15:33:32.038Z,100003.56
2023-02-11T15:36:01.863Z,100003.22
2023-02-11T15:38:30.882Z,100019.44
2023-02-11T15:41:02.007Z,100014.09
2023-02-11T15:43:46.730Z,100022.00
2023-02-11T15:46:18.512Z,100016.84
2023-02-11T15:48:50.008Z,100023.28
2023-02-11T15:51:22.130Z,100024.50
2023-02-11T15:53:56.893Z,100031.09
2023-02-11T15:56:29.763Z,100022.28
2023-02-11T15:59:02.170Z,100032.97
2023-02-11T16:01:34.069Z,100033.13
2023-02-11T16:04:03.986Z,100034.22
2023-02-11T16:06:38.953Z,100029.31
2023-02-11T16:09:24.580Z,100030.34
2023-02-11T16:11:58.222Z,100030.66
2023-02-11T16:14:34.291Z,100030.81
2023-02-11T16:17:06.791Z,100040.59
2023-02-11T16:19:36.361Z,100048.53
2023-02-11T16:22:11.398Z,100041.81
2023-02-11T16:24:40.600Z,100044.44
2023-02-11T16:27:22.620Z,100039.50
2023-02-11T16:29:55.567Z,100048.25
2023-02-11T16:32:26.634Z,100043.09
2023-02-11T16:34:57.876Z,100045.06
2023-02-11T16:37:26.465Z,100053.84
2023-02-11T16:39:55.347Z,100061.66
2023-02-11T16:42:24.427Z,100060.09
2023-02-11T16:44:54.102Z,100069.66
2023-02-11T16:47:28.314Z,100076.63
2023-02-11T16:49:57.415Z,100073.28
2023-02-11T16:52:26.669Z,100075.97
2023-02-11T16:54:55.064Z,100076.81
2023-02-11T16:57:29.584Z,100079.34
2023-02-11T17:00:00.110Z,100081.97
2023-02-11T17:02:31.821Z,100082.03
2023-02-11T17:05:03.718Z,100082.09
2023-02-11T17:07:32.596Z,100085.66
2023-02-11T17:10:01.019Z,100073.81
2023-02-11T17:12:29.341Z,100092.75
2023-02-11T17:14:59.107Z,100075.63
2023-02-11T17:17:29.366Z,100086.88
2023-02-11T17:19:58.165Z,100092.97
2023-02-11T17:22:26.388Z,100088.75
2023-02-11T17:24:55.917Z,100080.28
2023-02-11T17:27:24.303Z,100075.06
2023-02-11T17:29:52.588Z,100078.59
2023-02-11T17:32:22.374Z,100083.75
2023-02-11T17:34:50.739Z,100086.25
2023-02-11T17:37:18.990Z,100084.69
2023-02-11T17:39:47.236Z,100081.34
2023-02-11T17:42:15.808Z,100087.53
2023-02-11T17:44:45.316Z,100093.66
2023-02-11T17:47:13.854Z,100101.50
2023-02-11T17:49:43.901Z,100098.16
2023-02-11T17:52:12.164Z,100100.94
2023-02-11T17:54:40.769Z,100104.31
2023-02-11T17:57:09.052Z,100112.97
2023-02-11T17:59:37.482Z,100116.47
2023-02-11T18:02:06.996Z,100115.66
2023-02-11T18:04:35.940Z,100112.28
2023-02-11T18:07:05.636Z,100110.59
2023-02-11T18:09:38.994Z,100116.63
2023-02-11T18:12:08.554Z,100119.25
2023-02-11T18:14:36.798Z,100130.44
2023-02-11T18:17:05.255Z,100124.47
2023-02-11T18:19:35.884Z,100123.63
2023-02-11T18:22:05.710Z,100125.34
2023-02-11T18:24:34.059Z,100126.28
2023-02-11T18:27:02.612Z,100127.06
2023-02-11T18:29:31.172Z,100125.47
2023-02-11T18:31:59.869Z,100124.56
2023-02-11T18:34:28.607Z,100128.88
2023-02-11T18:36:57.044Z,100135.78
2023-02-11T18:39:26.791Z,100140.94
2023-02-11T18:41:58.846Z,100142.69
2023-02-11T18:44:28.087Z,100147.94
2023-02-11T18:46:56.550Z,100139.41
2023-02-11T18:49:25.274Z,100132.53
2023-02-11T18:51:54.063Z,100130.00
2023-02-11T18:54:22.512Z,100131.78
2023-02-11T18:56:52.337Z,100129.22
2023-02-11T18:59:20.830Z,100137.84
2023-02-11T19:01:49.307Z,100135.31
2023-02-11T19:04:20.001Z,100136.19
2023-02-11T19:06:50.461Z,100140.50
2023-02-11T19:09:20.688Z,100141.38
2023-02-11T19:11:50.992Z,100135.38
2023-02-11T19:14:23.193Z,100130.25
2023-02-11T19:16:54.230Z,100146.59
2023-02-11T19:19:24.548Z,100137.13
2023-02-11T19:21:52.848Z,100135.38
2023-02-11T19:24:21.429Z,100127.69
2023-02-11T19:26:53.546Z,100128.59
2023-02-11T19:29:21.998Z,100138.88
2023-02-11T19:31:50.934Z,100147.50
2023-02-11T19:34:21.409Z,100139.00
2023-02-11T19:36:50.992Z,100133.88
2023-02-11T19:39:19.417Z,100142.47
2023-02-11T19:41:47.747Z,100134.78
2023-02-11T19:44:17.404Z,100137.38
2023-02-11T19:46:48.345Z,100141.66
2023-02-11T19:49:22.951Z,100139.06
2023-02-11T19:51:52.111Z,100130.56
2023-02-11T19:54:21.231Z,100129.72
2023-02-11T19:56:49.924Z,100126.31
2023-02-11T19:59:20.814Z,100131.53
2023-02-11T20:01:49.376Z,100126.50
2023-02-11T20:04:18.474Z,100128.25
2023-02-11T20:06:48.228Z,100131.69
2023-02-11T20:09:16.646Z,100131.69
2023-02-11T20:11:45.146Z,100140.34
2023-02-11T20:14:15.708Z,100136.03
2023-02-11T20:16:49.556Z,100132.59
2023-02-11T20:19:21.217Z,100132.63
2023-02-11T20:21:55.549Z,100132.63
2023-02-11T20:24:25.747Z,100128.34
2023-02-11T20:26:56.057Z,100131.81
2023-02-11T20:29:25.325Z,100127.59
2023-02-11T20:31:55.708Z,100136.16
2023-02-11T20:34:25.021Z,100136.19
2023-02-11T20:36:54.093Z,100129.34
2023-02-11T20:39:24.253Z,100127.69
2023-02-11T20:41:54.401Z,100126.81
2023-02-11T20:44:23.578Z,100132.81
2023-02-11T20:46:54.908Z,100134.53
2023-02-11T20:49:25.144Z,100135.41
2023-02-11T20:51:54.354Z,100137.97
2023-02-11T20:54:24.357Z,100144.00
2023-02-11T20:56:53.898Z,100150.88
2023-02-11T20:59:22.825Z,100145.72
2023-02-11T21:01:56.497Z,100149.19
2023-02-11T21:04:28.151Z,100139.84
2023-02-11T21:07:00.017Z,100140.69
2023-02-11T21:09:31.202Z,100156.91
2023-02-11T21:12:00.064Z,100147.47
2023-02-11T21:14:29.768Z,100154.25
2023-02-11T21:16:59.733Z,100154.28
2023-02-11T21:19:28.144Z,100154.22
2023-02-11T21:21:57.352Z,100147.44
2023-02-11T21:24:25.864Z,100158.59
2023-02-11T21:26:54.649Z,100154.25
2023-02-11T21:29:23.180Z,100155.16
2023-02-11T21:31:51.554Z,100164.63
2023-02-11T21:34:21.408Z,100156.91
2023-02-11T21:36:51.108Z,100164.63
2023-02-11T21:39:20.340Z,100162.09
2023-02-11T21:41:48.917Z,100167.25
2023-02-11T21:44:17.859Z,100170.66
2023-02-11T21:46:46.694Z,100166.38
2023-02-11T21:49:15.140Z,100178.38
2023-02-11T21:51:45.094Z,100169.84
2023-02-11T21:54:13.511Z,100166.41
2023-02-11T21:56:41.791Z,100175.00
2023-02-11T21:59:13.792Z,100178.41
2023-02-11T22:01:42.333Z,100184.44
2023-02-11T22:04:11.144Z,100185.28
2023-02-11T22:06:40.355Z,100169.88
2023-02-11T22:09:11.697Z,100167.28
2023-02-11T22:11:39.972Z,100168.16
2023-02-11T22:14:08.562Z,100176.75
2023-02-11T22:16:36.888Z,100171.59
2023-02-11T22:19:07.589Z,100174.16
2023-02-11T22:21:36.026Z,100186.13
2023-02-11T22:24:04.569Z,100182.75
2023-02-11T22:26:34.463Z,100180.19
2023-02-11T22:29:02.824Z,100178.50
2023-02-11T22:31:34.065Z,100194.78
2023-02-11T22:34:04.356Z,100194.75
2023-02-11T22:36:35.595Z,100192.22
2023-02-11T22:39:05.916Z,100194.78
2023-02-11T22:41:38.314Z,100198.22
2023-02-11T22:44:06.696Z,100200.78
2023-02-11T22:46:35.261Z,100189.69
2023-02-11T22:49:03.887Z,100180.28
2023-02-11T22:51:33.302Z,100174.28
2023-02-11T22:54:04.770Z,100178.56
2023-02-11T22:56:36.222Z,100172.59
2023-02-11T22:59:09.594Z,100187.13
2023-02-11T23:01:38.538Z,100186.28
2023-02-11T23:04:09.132Z,100185.41
2023-02-11T23:06:37.470Z,100191.44
2023-02-11T23:09:06.267Z,100183.72
2023-02-11T23:11:36.744Z,100176.91
2023-02-11T23:14:05.623Z,100182.88
2023-02-11T23:16:35.637Z,100184.59
2023-02-11T23:19:06.844Z,100173.50
2023-02-11T23:21:38.007Z,100172.66
2023-02-11T23:24:09.732Z,100174.34
2023-02-11T23:26:40.920Z,100172.63
2023-02-11T23:29:10.045Z,100167.53
2023-02-11T23:31:41.012Z,100163.25
2023-02-11T23:34:10.275Z,100174.38
2023-02-11T23:36:38.611Z,100181.25
2023-02-11T23:39:07.082Z,100185.53
2023-02-11T23:41:35.702Z,100189.81
2023-02-11T23:44:05.688Z,100195.78
2023-02-11T23:46:34.113Z,100194.09
2023-02-11T23:49:02.433Z,100191.59
2023-02-11T23:51:31.256Z,100194.16
2023-02-11T23:53:59.527Z,100189.88
2023-02-11T23:56:29.229Z,100187.34
2023-02-11T23:58:59.561Z,100190.78
